Time;durP1;ratioP1;P1;durP2;ratioP2;P2;SDS_P1;SDS_P2;PMS_P1;PMS_P2;Temp;Humidity;BMP_temperature;BMP_pressure;BME280_temperature;BME280_humidity;BME280_pressure;Samples;Min_cycle;Max_cycle;Signal;HPM_P1;HPM_P2
2024/02/14 00:00:15;;;;;;;0.50;0.50;;;;;;;8.29;100.00;100316.53;5060418;28;20037;-75
2024/02/14 00:02:43;;;;;;;0.20;0.20;;;;;;;7.98;100.00;100271.88;5060929;28;20051;-75
2024/02/14 00:05:15;;;;;;;0.20;0.20;;;;;;;7.49;100.00;100220.09;5046826;28;20049;-75
2024/02/14 00:07:44;;;;;;;0.30;0.30;;;;;;;7.09;100.00;100145.75;5060750;28;20139;-74
2024/02/14 00:10:10;;;;;;;0.20;0.20;;;;;;;7.10;100.00;100147.53;5054538;28;20533;-76
2024/02/14 00:12:37;;;;;;;0.20;0.20;;;;;;;7.70;100.00;100266.44;5034894;28;20131;-74
2024/02/14 00:15:28;;;;;;;0.60;0.60;;;;;;;7.74;100.00;100238.59;5079212;28;20157;-75
2024/02/14 00:17:56;;;;;;;2.58;1.17;;;;;;;8.19;100.00;100324.34;5050726;28;20049;-73
2024/02/14 00:20:24;;;;;;;0.63;0.63;;;;;;;7.50;100.00;100226.19;5024193;28;20633;-73
2024/02/14 00:22:51;;;;;;;0.30;0.30;;;;;;;7.85;100.00;100283.09;5050573;28;20060;-74
2024/02/14 00:25:19;;;;;;;0.73;0.73;;;;;;;7.11;100.00;100184.03;5043913;28;20578;-74
2024/02/14 00:27:49;;;;;;;0.30;0.30;;;;;;;7.34;100.00;100210.38;5040445;28;20763;-75
2024/02/14 00:30:16;;;;;;;0.30;0.30;;;;;;;7.30;100.00;100203.38;5034195;28;20516;-75
2024/02/14 00:33:04;;;;;;;0.40;0.40;;;;;;;7.11;100.00;100149.25;5064814;28;20086;-75
2024/02/14 00:35:31;;;;;;;1.90;1.60;;;;;;;7.01;100.00;100153.50;5059518;28;20851;-75
2024/02/14 00:37:58;;;;;;;0.82;0.82;;;;;;;6.63;100.00;100096.63;5048594;28;20088;-77
2024/02/14 00:40:35;;;;;;;0.95;0.93;;;;;;;7.44;100.00;100226.13;5048238;28;20064;-76
2024/02/14 00:43:00;;;;;;;0.30;0.30;;;;;;;6.87;100.00;100118.59;5057979;28;20147;-74
2024/02/14 00:45:26;;;;;;;0.38;0.38;;;;;;;7.79;100.00;100281.28;5062423;28;20119;-74
2024/02/14 00:47:52;;;;;;;0.35;0.35;;;;;;;8.17;100.00;100338.22;5060477;28;20157;-74
2024/02/14 00:50:19;;;;;;;0.50;0.50;;;;;;;7.62;100.00;100260.25;5058190;28;20434;-76
2024/02/14 00:52:45;;;;;;;0.40;0.40;;;;;;;7.63;100.00;100272.44;5045493;28;20575;-75
2024/02/14 00:55:11;;;;;;;0.40;0.40;;;;;;;7.69;100.00;100249.00;5062584;28;20049;-75
2024/02/14 00:57:43;;;;;;;0.20;0.20;;;;;;;7.30;100.00;100203.38;5045258;28;20079;-76
2024/02/14 01:00:22;;;;;;;0.40;0.40;;;;;;;8.24;100.00;100348.78;5054805;28;20124;-75
2024/02/14 01:02:57;;;;;;;0.65;0.60;;;;;;;7.33;100.00;100202.56;5059212;28;20435;-74
2024/02/14 01:05:25;;;;;;;0.30;0.30;;;;;;;8.13;100.00;100349.53;5037760;28;20443;-76
2024/02/14 01:07:50;;;;;;;3.88;2.65;;;;;;;7.55;100.00;100250.59;5043999;28;20098;-74
2024/02/14 01:10:20;;;;;;;1.45;1.30;;;;;;;7.82;100.00;100295.28;5044290;28;20052;-74
2024/02/14 01:12:48;;;;;;;0.30;0.30;;;;;;;7.55;100.00;100250.59;5055104;28;20603;-74
2024/02/14 01:15:17;;;;;;;0.30;0.30;;;;;;;8.03;100.00;100314.63;5045193;28;21161;-76
2024/02/14 01:17:47;;;;;;;0.30;0.30;;;;;;;8.16;100.00;100355.66;5075938;28;20119;-74
2024/02/14 01:20:12;;;;;;;0.30;0.30;;;;;;;8.36;100.00;100358.44;5006403;28;20083;-75
2024/02/14 01:22:42;;;;;;;0.40;0.40;;;;;;;7.33;100.00;100173.84;5042779;28;20048;-74
2024/02/14 01:25:10;;;;;;;1.17;1.05;;;;;;;7.32;100.00;100183.38;5052598;28;20084;-74
2024/02/14 01:27:36;;;;;;;4.57;4.28;;;;;;;7.85;100.00;100319.66;5055242;28;20040;-75
2024/02/14 01:30:02;;;;;;;0.30;0.30;;;;;;;8.07;100.00;100339.03;5061984;28;20849;-76
2024/02/14 01:32:29;;;;;;;0.30;0.30;;;;;;;8.00;100.00;100338.94;5060380;28;20083;-77
2024/02/14 01:34:55;;;;;;;0.40;0.40;;;;;;;8.03;100.00;100357.28;5064624;28;20605;-75
2024/02/14 01:37:20;;;;;;;0.20;0.20;;;;;;;7.55;100.00;100269.75;5063749;28;20048;-77
2024/02/14 01:39:46;;;;;;;1.20;0.95;;;;;;;8.13;100.00;100350.41;5054898;28;20068;-74
2024/02/14 01:42:12;;;;;;;0.35;0.35;;;;;;;7.70;100.00;100268.16;5059287;28;20044;-75
2024/02/14 01:44:37;;;;;;;0.30;0.30;;;;;;;8.19;100.00;100352.19;5065192;28;20475;-75
2024/02/14 01:47:03;;;;;;;0.47;0.47;;;;;;;7.73;100.00;100279.50;5059653;28;20045;-74
2024/02/14 01:49:31;;;;;;;0.25;0.25;;;;;;;8.04;100.00;100338.13;5061095;28;20057;-74
2024/02/14 01:52:02;;;;;;;0.30;0.30;;;;;;;7.90;100.00;100290.09;5061526;28;20045;-75
2024/02/14 01:54:28;;;;;;;0.75;0.75;;;;;;;7.69;100.00;100259.44;5054317;28;20032;-75
2024/02/14 01:56:55;;;;;;;0.28;0.28;;;;;;;7.90;100.00;100336.25;5050032;28;20044;-77
2024/02/14 01:59:20;;;;;;;0.30;0.30;;;;;;;8.03;100.00;100374.72;5061101;28;20049;-74
2024/02/14 02:01:47;;;;;;;1.45;0.77;;;;;;;7.63;100.00;100269.81;5054076;28;20454;-75
2024/02/14 02:04:13;;;;;;;0.20;0.20;;;;;;;7.63;100.00;100263.72;5057499;28;20156;-76
2024/02/14 02:06:41;;;;;;;0.85;0.85;;;;;;;7.94;100.00;100341.53;5058112;28;20111;-75
2024/02/14 02:09:07;;;;;;;0.20;0.20;;;;;;;7.88;100.00;100324.91;5062906;28;20472;-75
2024/02/14 02:11:48;;;;;;;0.20;0.20;;;;;;;8.02;100.00;100352.91;5061841;28;21668;-75
2024/02/14 02:14:29;;;;;;;0.22;0.22;;;;;;;7.30;100.00;100246.88;5065306;28;20518;-75
2024/02/14 02:17:21;;;;;;;0.30;0.30;;;;;;;6.96;100.00;100210.84;5059705;28;20059;-75
2024/02/14 02:19:55;;;;;;;3.38;3.13;;;;;;;7.61;100.00;100284.63;5034529;28;20057;-73
2024/02/14 02:22:44;;;;;;;2.05;0.77;;;;;;;7.95;100.00;100363.28;5056943;28;23800;-75
2024/02/14 02:25:10;;;;;;;0.20;0.20;;;;;;;7.57;100.00;100288.94;5063470;28;20575;-75
2024/02/14 02:27:37;;;;;;;0.30;0.30;;;;;;;7.64;100.00;100302.06;5059548;28;20071;-76
2024/02/14 02:30:08;;;;;;;1.40;1.30;;;;;;;7.57;100.00;100314.16;5059235;28;20197;-76
2024/02/14 02:32:34;;;;;;;0.20;0.20;;;;;;;7.89;100.00;100371.97;5062978;28;20118;-75
2024/02/14 02:35:01;;;;;;;0.95;0.47;;;;;;;7.28;100.00;100275.56;5057447;28;20492;-74
2024/02/14 02:37:29;;;;;;;0.60;0.50;;;;;;;7.37;100.00;100307.00;5042714;28;20175;-76
2024/02/14 02:39:56;;;;;;;1.38;1.20;;;;;;;7.10;100.00;100244.94;5059331;28;20052;-74
2024/02/14 02:42:29;;;;;;;0.20;0.20;;;;;;;6.84;100.00;100262.88;5052640;28;20446;-73
2024/02/14 02:45:10;;;;;;;1.38;1.27;;;;;;;7.42;100.00;100333.13;5044552;28;20036;-74
2024/02/14 02:47:44;;;;;;;1.50;1.40;;;;;;;7.04;100.00;100257.88;5069855;28;20086;-75
2024/02/14 02:50:30;;;;;;;0.30;0.30;;;;;;;7.24;100.00;100296.41;5065167;28;20045;-74
2024/02/14 02:52:57;;;;;;;0.30;0.30;;;;;;;7.32;100.00;100316.50;5060071;28;20734;-75
2024/02/14 02:55:23;;;;;;;0.30;0.30;;;;;;;7.94;100.00;100434.72;5060933;28;20140;-74
2024/02/14 02:57:48;;;;;;;0.40;0.40;;;;;;;7.14;100.00;100316.25;5076767;28;20135;-74
2024/02/14 03:00:15;;;;;;;0.47;0.47;;;;;;;7.82;100.00;100452.00;5057058;28;20031;-73
2024/02/14 03:02:44;;;;;;;0.28;0.28;;;;;;;7.19;100.00;100351.16;5059567;28;20028;-73
2024/02/14 03:05:17;;;;;;;0.55;0.55;;;;;;;7.76;100.00;100449.31;5057387;28;20048;-74
2024/02/14 03:07:45;;;;;;;0.30;0.30;;;;;;;7.05;100.00;100352.69;5060923;28;20036;-75
2024/02/14 03:10:17;;;;;;;0.40;0.40;;;;;;;7.69;100.00;100454.44;5060615;28;20068;-75
2024/02/14 03:12:47;;;;;;;0.30;0.30;;;;;;;7.17;100.00;100366.78;5056675;28;20111;-75
2024/02/14 03:15:15;;;;;;;0.30;0.30;;;;;;;7.39;100.00;100378.34;5060833;28;20147;-74
2024/02/14 03:17:42;;;;;;;0.20;0.20;;;;;;;7.32;100.00;100370.44;5058319;28;20036;-75
2024/02/14 03:20:14;;;;;;;2.40;2.00;;;;;;;7.82;100.00;100454.59;5053686;28;20116;-74
2024/02/14 03:22:46;;;;;;;0.20;0.20;;;;;;;7.45;100.00;100401.06;5059918;28;20052;-74
2024/02/14 03:25:16;;;;;;;0.30;0.30;;;;;;;7.57;100.00;100416.88;5058794;28;20052;-74
2024/02/14 03:27:45;;;;;;;0.35;0.35;;;;;;;7.75;100.00;100462.31;5058865;28;20045;-75
2024/02/14 03:30:12;;;;;;;0.85;0.85;;;;;;;7.33;100.00;100399.16;5060442;28;20084;-76
2024/02/14 03:32:38;;;;;;;0.20;0.20;;;;;;;7.74;100.00;100464.06;5055644;28;20495;-74
2024/02/14 03:35:04;;;;;;;0.20;0.20;;;;;;;7.14;100.00;100374.56;5061116;28;20163;-73
2024/02/14 03:37:33;;;;;;;0.70;0.68;;;;;;;7.52;100.00;100433.34;5062448;28;20072;-73
2024/02/14 03:40:00;;;;;;;7.25;0.60;;;;;;;7.92;100.00;100497.38;5063215;28;20079;-73
2024/02/14 03:42:26;;;;;;;0.25;0.25;;;;;;;7.14;100.00;100397.16;5055533;28;20029;-75
2024/02/14 03:44:53;;;;;;;2.28;1.65;;;;;;;7.75;100.00;100507.63;5063680;28;20064;-74
2024/02/14 03:47:18;;;;;;;0.98;0.95;;;;;;;6.95;100.00;100403.84;5060098;28;20033;-74
2024/02/14 03:49:44;;;;;;;0.20;0.20;;;;;;;7.63;100.00;100497.00;5061352;28;20144;-74
2024/02/14 03:52:10;;;;;;;0.55;0.55;;;;;;;7.08;100.00;100405.78;5056446;28;21300;-74
2024/02/14 03:54:39;;;;;;;0.20;0.20;;;;;;;7.05;100.00;100417.94;5058160;28;20053;-74
2024/02/14 03:57:08;;;;;;;0.20;0.20;;;;;;;7.66;100.00;100523.19;5061715;28;20051;-76
2024/02/14 03:59:36;;;;;;;0.30;0.30;;;;;;;7.00;100.00;100427.38;5057091;28;20101;-74
2024/02/14 04:02:01;;;;;;;0.43;0.43;;;;;;;6.85;100.00;100402.84;5060147;28;20048;-74
2024/02/14 04:04:28;;;;;;;0.32;0.32;;;;;;;7.66;100.00;100528.41;5055593;28;20048;-76
2024/02/14 04:06:54;;;;;;;0.93;0.70;;;;;;;6.63;100.00;100400.78;5061405;28;20052;-74
2024/02/14 04:09:20;;;;;;;0.40;0.40;;;;;;;7.59;100.00;100532.66;5054892;28;20032;-73
2024/02/14 04:11:45;;;;;;;0.60;0.60;;;;;;;7.10;100.00;100474.53;5057944;28;20476;-74
2024/02/14 04:14:11;;;;;;;0.20;0.20;;;;;;;7.05;100.00;100509.25;5057435;28;20895;-74
2024/02/14 04:16:36;;;;;;;0.30;0.30;;;;;;;7.46;100.00;100545.50;5057557;28;20143;-74
2024/02/14 04:19:02;;;;;;;0.30;0.30;;;;;;;6.12;100.00;100325.25;5039033;28;20531;-74
2024/02/14 04:21:29;;;;;;;0.30;0.30;;;;;;;7.31;100.00;100526.16;5057962;28;20143;-76
2024/02/14 04:23:54;;;;;;;0.30;0.30;;;;;;;7.32;100.00;100516.59;5060369;28;20033;-77
2024/02/14 04:26:22;;;;;;;0.30;0.30;;;;;;;7.33;100.00;100537.50;5050057;28;20807;-75
2024/02/14 04:28:47;;;;;;;0.43;0.43;;;;;;;7.32;100.00;100546.19;5060566;28;20567;-76
2024/02/14 04:31:13;;;;;;;2.25;2.15;;;;;;;6.74;100.00;100443.50;5052262;28;20095;-74
2024/02/14 04:33:39;;;;;;;0.30;0.30;;;;;;;6.10;100.00;100375.56;5054496;28;20048;-75
2024/02/14 04:36:06;;;;;;;0.63;0.63;;;;;;;6.97;100.00;100504.75;5026785;28;20094;-75
2024/02/14 04:38:32;;;;;;;2.08;1.98;;;;;;;6.48;100.00;100411.81;5076202;28;20876;-74
2024/02/14 04:40:58;;;;;;;0.30;0.30;;;;;;;7.11;100.00;100535.41;5057697;28;20131;-73
2024/02/14 04:43:26;;;;;;;0.30;0.30;;;;;;;7.11;100.00;100557.16;5061517;28;20414;-75
2024/02/14 04:45:52;;;;;;;0.30;0.30;;;;;;;7.20;100.00;100564.25;5061352;28;20040;-76
2024/02/14 04:48:18;;;;;;;0.43;0.43;;;;;;;6.53;100.00;100454.47;5063712;28;20754;-76
2024/02/14 04:50:43;;;;;;;0.20;0.20;;;;;;;6.59;100.00;100465.00;5062679;28;20080;-76
2024/02/14 04:53:12;;;;;;;6.68;3.17;;;;;;;7.12;100.00;100550.22;5061254;28;20040;-75
2024/02/14 04:55:37;;;;;;;5.68;5.38;;;;;;;7.01;100.00;100568.31;5055539;28;20090;-73
2024/02/14 04:58:05;;;;;;;0.20;0.20;;;;;;;6.98;100.00;100555.22;5053548;28;20500;-75
2024/02/14 05:00:30;;;;;;;0.38;0.38;;;;;;;6.75;100.00;100492.22;5062576;28;20057;-74
2024/02/14 05:02:57;;;;;;;0.20;0.20;;;;;;;6.80;100.00;100501.00;5057164;28;20090;-76
2024/02/14 05:05:23;;;;;;;0.30;0.30;;;;;;;6.48;100.00;100496.09;5064141;28;20143;-75
2024/02/14 05:07:50;;;;;;;2.05;1.95;;;;;;;7.06;100.00;100574.47;5055931;28;20043;-75
2024/02/14 05:10:15;;;;;;;2.30;1.83;;;;;;;7.03;100.00;100581.38;5059993;28;20128;-75
2024/02/14 05:12:41;;;;;;;0.30;0.30;;;;;;;7.22;100.00;100593.88;5064147;28;20203;-75
2024/02/14 05:15:12;;;;;;;2.20;2.00;;;;;;;7.29;100.00;100610.53;5065039;28;20033;-75
2024/02/14 05:17:41;;;;;;;0.60;0.60;;;;;;;6.13;100.00;100406.88;5051874;28;20052;-75
2024/02/14 05:20:11;;;;;;;0.47;0.47;;;;;;;6.66;100.00;100505.97;5052915;28;20058;-74
2024/02/14 05:22:39;;;;;;;0.40;0.40;;;;;;;6.58;100.00;100524.94;5062940;28;20045;-74
2024/02/14 05:25:08;;;;;;;1.77;1.67;;;;;;;6.44;100.00;100490.78;5058467;28;20044;-74
2024/02/14 05:27:37;;;;;;;0.30;0.30;;;;;;;7.14;100.00;100617.25;5050979;28;20056;-75
2024/02/14 05:30:05;;;;;;;0.20;0.20;;;;;;;6.40;100.00;100495.09;5075439;28;20052;-74
2024/02/14 05:32:31;;;;;;;0.50;0.50;;;;;;;6.45;100.00;100472.59;5049339;28;20033;-74
2024/02/14 05:35:10;;;;;;;0.77;0.77;;;;;;;7.03;100.00;100587.47;5059302;28;20560;-74
2024/02/14 05:37:36;;;;;;;0.30;0.30;;;;;;;6.73;100.00;100527.81;5047406;28;20048;-76
2024/02/14 05:40:06;;;;;;;0.28;0.28;;;;;;;7.08;100.00;100588.41;5058494;28;21895;-74
2024/02/14 05:42:34;;;;;;;2.13;2.03;;;;;;;7.27;100.00;100644.41;5039375;28;20419;-74
2024/02/14 05:45:00;;;;;;;2.03;1.95;;;;;;;6.88;100.00;100555.88;5057480;28;20028;-74
2024/02/14 05:47:25;;;;;;;0.80;0.63;;;;;;;7.05;100.00;100569.25;5049896;28;20046;-76
2024/02/14 05:49:52;;;;;;;0.30;0.30;;;;;;;7.24;100.00;100601.75;5064779;28;20452;-76
2024/02/14 05:52:19;;;;;;;0.30;0.30;;;;;;;7.00;100.00;100599.56;5045182;28;20102;-74
2024/02/14 05:54:44;;;;;;;0.25;0.25;;;;;;;7.08;100.00;100611.91;5064998;28;20503;-75
2024/02/14 05:57:10;;;;;;;0.20;0.20;;;;;;;7.43;100.00;100649.91;5068877;28;20114;-75
2024/02/14 05:59:35;;;;;;;1.60;0.95;;;;;;;7.29;100.00;100634.88;5060030;28;20391;-76
2024/02/14 06:02:02;;;;;;;1.05;1.05;;;;;;;7.29;100.00;100600.94;5059379;28;20395;-75
2024/02/14 06:04:28;;;;;;;0.30;0.30;;;;;;;7.60;100.00;100651.03;5062890;28;20528;-75
2024/02/14 06:06:56;;;;;;;1.13;1.13;;;;;;;6.78;100.00;100531.38;5056837;28;20129;-77
2024/02/14 06:09:22;;;;;;;0.30;0.30;;;;;;;7.56;100.00;100641.41;5050968;28;20033;-75
2024/02/14 06:11:47;;;;;;;0.20;0.20;;;;;;;7.74;100.00;100659.97;5079341;28;20126;-75
2024/02/14 06:14:14;;;;;;;0.40;0.40;;;;;;;7.58;100.00;100613.56;5066514;28;20093;-75
2024/02/14 06:16:41;;;;;;;0.38;0.38;;;;;;;7.81;100.00;100664.44;5066018;28;20040;-74
2024/02/14 06:19:07;;;;;;;0.30;0.30;;;;;;;7.30;100.00;100609.66;5067049;28;20056;-76
2024/02/14 06:22:14;;;;;;;0.20;0.20;;;;;;;7.83;100.00;100667.06;5055581;28;20068;-74
2024/02/14 06:24:42;;;;;;;1.25;0.98;;;;;;;7.08;100.00;100551.03;5069211;28;20044;-76
2024/02/14 06:27:07;;;;;;;5.60;5.20;;;;;;;7.19;100.00;100576.44;5066421;28;20033;-75
2024/02/14 06:29:34;;;;;;;0.30;0.30;;;;;;;7.00;100.00;100584.81;5069259;28;20053;-75
2024/02/14 06:32:00;;;;;;;1.27;1.17;;;;;;;7.71;100.00;100679.97;5058150;28;20083;-75
2024/02/14 06:34:29;;;;;;;0.30;0.30;;;;;;;7.25;100.00;100567.81;5059519;28;20052;-74
2024/02/14 06:36:54;;;;;;;0.30;0.30;;;;;;;7.66;100.00;100690.31;5065277;28;20085;-76
2024/02/14 06:39:23;;;;;;;0.32;0.32;;;;;;;7.59;100.00;100650.16;5064270;28;20071;-74
2024/02/14 06:41:49;;;;;;;0.30;0.30;;;;;;;7.80;100.00;100678.34;5065066;28;20033;-76
2024/02/14 06:44:16;;;;;;;0.30;0.30;;;;;;;8.06;100.00;100690.94;5063233;28;20163;-76
2024/02/14 06:46:48;;;;;;;0.30;0.30;;;;;;;7.29;100.00;100524.38;5065225;28;20044;-76
2024/02/14 06:49:42;;;;;;;1.15;1.15;;;;;;;7.22;100.00;100514.72;5049182;28;20477;-75
2024/02/14 06:52:47;;;;;;;1.48;1.38;;;;;;;7.85;100.00;100610.50;5030727;28;20098;-75
2024/02/14 06:55:21;;;;;;;0.30;0.30;;;;;;;7.40;100.00;100509.78;5055478;28;20035;-76
2024/02/14 06:58:07;;;;;;;0.30;0.30;;;;;;;8.41;100.00;100695.81;5061944;28;20036;-76
2024/02/14 07:00:35;;;;;;;0.70;0.70;;;;;;;8.29;100.00;100690.38;5063869;28;20113;-76
2024/02/14 07:03:00;;;;;;;0.52;0.52;;;;;;;7.62;100.00;100597.09;5063216;28;20044;-75
2024/02/14 07:05:28;;;;;;;2.50;2.08;;;;;;;8.03;100.00;100656.94;5065173;28;20048;-76
2024/02/14 07:07:55;;;;;;;0.60;0.60;;;;;;;8.33;100.00;100693.03;5046473;28;20151;-76
2024/02/14 07:10:20;;;;;;;0.85;0.77;;;;;;;8.35;100.00;100664.31;5060093;28;20049;-76
2024/02/14 07:12:47;;;;;;;0.20;0.20;;;;;;;8.36;100.00;100682.66;5066542;28;20165;-75
2024/02/14 07:15:16;;;;;;;0.20;0.20;;;;;;;8.56;100.00;100676.81;5044217;28;20100;-75
2024/02/14 07:17:44;;;;;;;0.55;0.55;;;;;;;8.72;100.00;100683.13;5030681;28;20045;-74
2024/02/14 07:20:10;;;;;;;0.45;0.45;;;;;;;8.68;100.00;100700.50;5061866;28;20040;-75
2024/02/14 07:22:53;;;;;;;0.20;0.20;;;;;;;7.81;100.00;100612.19;5057884;28;20060;-76
2024/02/14 07:25:23;;;;;;;0.52;0.52;;;;;;;7.95;100.00;100619.34;5067515;28;20048;-76
2024/02/14 07:27:49;;;;;;;0.85;0.85;;;;;;;8.43;100.00;100666.22;5061210;28;20120;-74
2024/02/14 07:30:18;;;;;;;0.40;0.40;;;;;;;8.17;100.00;100634.47;5063029;28;20175;-76
2024/02/14 07:32:44;;;;;;;0.30;0.30;;;;;;;7.94;100.00;100586.25;5063525;28;20459;-78
2024/02/14 07:35:13;;;;;;;0.30;0.30;;;;;;;8.24;100.00;100653.72;5065609;28;20409;-76
2024/02/14 07:37:40;;;;;;;2.38;2.28;;;;;;;8.22;100.00;100643.25;5061846;28;20488;-76
2024/02/14 07:40:06;;;;;;;0.30;0.30;;;;;;;7.96;100.00;100606.31;5053692;28;20045;-77
2024/02/14 07:42:32;;;;;;;0.22;0.22;;;;;;;8.49;100.00;100678.47;5050670;28;20049;-74
2024/02/14 07:44:59;;;;;;;0.38;0.38;;;;;;;8.24;100.00;100617.09;5057122;28;20057;-75
2024/02/14 07:47:32;;;;;;;0.52;0.52;;;;;;;8.47;100.00;100666.25;5061294;28;20149;-75
2024/02/14 07:49:59;;;;;;;0.25;0.25;;;;;;;8.92;100.00;100715.66;5058638;28;20055;-75
2024/02/14 07:52:25;;;;;;;0.28;0.28;;;;;;;8.14;100.00;100581.28;5060816;28;20495;-76
2024/02/14 07:55:01;;;;;;;0.40;0.40;;;;;;;8.98;100.00;100751.47;5058400;28;20597;-75
2024/02/14 07:57:30;;;;;;;1.05;1.05;;;;;;;8.57;100.00;100675.94;5063897;28;20040;-75
2024/02/14 07:59:56;;;;;;;1.02;0.68;;;;;;;8.96;100.00;100721.78;5046129;28;20135;-75
2024/02/14 08:02:31;;;;;;;0.30;0.30;;;;;;;8.99;100.00;100716.56;5070349;28;20148;-76
2024/02/14 08:04:59;;;;;;;1.23;0.98;;;;;;;9.00;100.00;100736.66;5061640;28;20116;-75
2024/02/14 08:07:31;;;;;;;0.30;0.30;;;;;;;8.94;100.00;100718.25;5041628;28;20060;-75
2024/02/14 08:09:58;;;;;;;2.60;2.40;;;;;;;8.55;100.00;100707.34;5061056;28;20060;-74
2024/02/14 08:12:26;;;;;;;0.30;0.30;;;;;;;8.69;100.00;100743.28;5054193;28;20543;-76
2024/02/14 08:14:53;;;;;;;0.40;0.40;;;;;;;8.56;100.00;100740.47;5063208;28;20056;-75
2024/02/14 08:17:20;;;;;;;2.42;2.22;;;;;;;8.07;100.00;100653.47;5045817;28;20049;-76
2024/02/14 08:19:46;;;;;;;1.98;1.38;;;;;;;8.60;100.00;100738.78;5059076;28;20045;-75
2024/02/14 08:22:12;;;;;;;4.28;4.05;;;;;;;7.60;100.00;100570.09;5061781;28;20051;-75
2024/02/14 08:24:39;;;;;;;1.40;1.30;;;;;;;8.69;100.00;100759.84;5059099;28;20737;-75
2024/02/14 08:27:06;;;;;;;1.40;1.40;;;;;;;8.80;100.00;100742.53;5064658;28;20468;-77
2024/02/14 08:29:35;;;;;;;1.20;1.20;;;;;;;7.92;100.00;100606.25;5055076;28;20044;-76
2024/02/14 08:32:33;;;;;;;0.93;0.93;;;;;;;8.59;100.00;100765.78;5063869;28;20052;-75
2024/02/14 08:35:01;;;;;;;0.25;0.25;;;;;;;8.61;100.00;100717.00;5061544;28;20048;-76
2024/02/14 08:37:27;;;;;;;2.67;2.40;;;;;;;8.60;100.00;100670.78;5045404;28;20071;-75
2024/02/14 08:39:53;;;;;;;0.20;0.20;;;;;;;9.04;100.00;100734.09;5056152;28;20148;-76
2024/02/14 08:42:18;;;;;;;0.30;0.30;;;;;;;9.22;100.00;100745.63;5063948;28;20032;-76
2024/02/14 08:44:49;;;;;;;0.55;0.55;;;;;;;9.12;100.00;100744.66;5079138;28;20032;-76
2024/02/14 08:47:20;;;;;;;2.92;2.25;;;;;;;8.88;100.00;100677.22;5053402;28;20333;-75
2024/02/14 08:49:46;;;;;;;0.30;0.30;;;;;;;8.44;100.00;100601.72;5046686;28;20055;-75
2024/02/14 08:52:33;;;;;;;0.20;0.20;;;;;;;9.07;100.00;100680.91;5053927;28;20048;-75
2024/02/14 08:54:59;;;;;;;0.20;0.20;;;;;;;9.48;100.00;100764.22;5054533;28;20048;-76
2024/02/14 08:57:26;;;;;;;1.20;0.68;;;;;;;9.25;100.00;100724.72;5048298;28;20753;-75
2024/02/14 08:59:51;;;;;;;1.67;1.58;;;;;;;8.77;100.00;100643.06;5053468;28;20036;-75
2024/02/14 09:02:17;;;;;;;0.20;0.20;;;;;;;8.89;100.00;100626.63;5060695;28;20504;-76
2024/02/14 09:04:42;;;;;;;2.63;2.45;;;;;;;9.50;100.00;100755.53;5058255;28;20044;-75
2024/02/14 09:07:08;;;;;;;0.20;0.20;;;;;;;9.48;100.00;100683.03;5062071;28;20124;-76
2024/02/14 09:09:34;;;;;;;1.58;1.48;;;;;;;9.52;100.00;100687.44;5058323;28;20064;-77
2024/02/14 09:12:02;;;;;;;0.68;0.68;;;;;;;9.38;100.00;100657.63;5065179;28;20020;-77
2024/02/14 09:14:36;;;;;;;30.88;14.18;;;;;;;9.64;100.00;100670.94;5062112;28;20044;-76
2024/02/14 09:17:02;;;;;;;1.42;1.13;;;;;;;9.59;100.00;100761.72;5053225;28;20047;-74
2024/02/14 09:19:29;;;;;;;1.58;1.48;;;;;;;9.74;100.00;100769.75;5064707;28;20052;-76
2024/02/14 09:21:55;;;;;;;0.30;0.30;;;;;;;9.56;100.00;100704.06;5061560;28;20053;-76
2024/02/14 09:24:21;;;;;;;0.20;0.20;;;;;;;9.89;100.00;100779.47;5064728;28;20051;-75
2024/02/14 09:26:46;;;;;;;1.15;1.15;;;;;;;9.84;100.00;100747.97;5064172;28;20055;-76
2024/02/14 09:29:12;;;;;;;0.20;0.20;;;;;;;9.86;100.00;100774.22;5058577;28;20155;-75
2024/02/14 09:31:39;;;;;;;6.05;1.92;;;;;;;9.24;100.00;100697.63;5057215;28;20483;-75
2024/02/14 09:34:05;;;;;;;1.15;0.75;;;;;;;9.72;100.00;100776.69;5061650;28;20084;-75
2024/02/14 09:36:32;;;;;;;5.05;4.78;;;;;;;9.67;100.00;100741.72;5060475;28;20132;-75
2024/02/14 09:38:59;;;;;;;1.92;1.23;;;;;;;9.91;100.00;100776.00;5062620;28;20041;-75
2024/02/14 09:41:33;;;;;;;12.85;11.77;;;;;;;9.05;100.00;100633.75;5064480;28;20049;-74
2024/02/14 09:44:00;;;;;;;1.42;1.25;;;;;;;8.78;100.00;100652.69;5058627;28;20098;-76
2024/02/14 09:46:26;;;;;;;2.58;2.47;;;;;;;9.44;100.00;100760.72;5065211;28;20045;-76
2024/02/14 09:48:53;;;;;;;0.30;0.30;;;;;;;9.18;100.00;100686.25;5056329;28;20047;-76
2024/02/14 09:51:21;;;;;;;0.20;0.20;;;;;;;9.91;100.00;100783.84;5059894;28;20102;-76
2024/02/14 09:53:47;;;;;;;1.35;1.25;;;;;;;9.64;100.00;100695.38;5062233;28;20032;-76
2024/02/14 09:56:14;;;;;;;0.22;0.22;;;;;;;9.88;100.00;100756.72;5062713;28;20104;-74
2024/02/14 09:58:44;;;;;;;1.65;1.27;;;;;;;9.47;100.00;100683.91;5052919;28;20055;-76
2024/02/14 10:01:10;;;;;;;3.78;3.45;;;;;;;10.00;100.00;100777.81;5053442;28;20057;-77
2024/02/14 10:03:37;;;;;;;0.95;0.70;;;;;;;9.62;100.00;100769.59;5063891;28;20036;-74
2024/02/14 10:06:04;;;;;;;0.95;0.77;;;;;;;9.86;100.00;100785.56;5060377;28;20037;-77
2024/02/14 10:08:30;;;;;;;1.55;1.45;;;;;;;9.13;100.00;100685.31;5057806;28;20056;-76
2024/02/14 10:10:58;;;;;;;2.70;2.40;;;;;;;9.98;100.00;100778.69;5059712;28;20139;-76
2024/02/14 10:13:28;;;;;;;0.30;0.30;;;;;;;9.62;100.00;100749.53;5049342;28;20233;-75
2024/02/14 10:15:58;;;;;;;2.05;1.95;;;;;;;9.66;100.00;100781.88;5063463;28;20032;-76
2024/02/14 10:18:26;;;;;;;3.05;2.78;;;;;;;9.43;100.00;100724.00;5059492;28;20112;-77
2024/02/14 10:20:53;;;;;;;2.85;0.80;;;;;;;9.68;100.00;100709.41;5058933;28;20064;-77
2024/02/14 10:23:20;;;;;;;0.50;0.50;;;;;;;9.95;100.00;100734.97;5060868;28;20060;-75
2024/02/14 10:25:48;;;;;;;1.33;1.23;;;;;;;10.21;100.00;100770.97;5055140;28;20048;-77
2024/02/14 10:28:16;;;;;;;1.10;1.10;;;;;;;10.20;100.00;100756.09;5066033;28;20512;-76
2024/02/14 10:30:46;;;;;;;1.38;1.27;;;;;;;9.64;100.00;100657.84;5059886;28;20052;-75
2024/02/14 10:33:12;;;;;;;2.22;1.35;;;;;;;10.12;100.00;100729.84;5065918;28;20131;-75
2024/02/14 10:35:41;;;;;;;0.20;0.20;;;;;;;10.38;100.00;100743.16;5064242;28;20055;-76
2024/02/14 10:38:09;;;;;;;1.52;1.42;;;;;;;10.03;100.00;100682.59;5060443;28;20063;-75
2024/02/14 10:40:42;;;;;;;0.38;0.38;;;;;;;10.02;100.00;100683.44;5065453;28;20056;-75
2024/02/14 10:43:09;;;;;;;1.27;1.17;;;;;;;9.70;100.00;100618.59;5059784;28;20130;-76
2024/02/14 10:45:36;;;;;;;1.45;1.35;;;;;;;10.52;100.00;100744.09;5055104;28;20055;-75
2024/02/14 10:48:04;;;;;;;0.30;0.30;;;;;;;9.65;100.00;100631.66;5065371;28;20144;-75
2024/02/14 10:50:37;;;;;;;2.13;1.67;;;;;;;9.99;100.00;100663.31;5053754;28;20109;-78
2024/02/14 10:53:11;;;;;;;5.18;1.70;;;;;;;10.52;100.00;100744.09;5058461;28;20063;-75
2024/02/14 10:55:42;;;;;;;2.40;2.13;;;;;;;10.39;100.00;100704.69;5065850;28;20056;-76
2024/02/14 10:58:11;;;;;;;1.58;1.48;;;;;;;10.43;100.00;100711.69;5061034;28;20151;-76
2024/02/14 11:00:38;;;;;;;2.53;2.33;;;;;;;10.73;100.00;100753.84;5057842;28;20040;-76
2024/02/14 11:03:05;;;;;;;0.45;0.43;;;;;;;10.80;100.00;100739.00;5075467;28;20131;-78
2024/02/14 11:05:31;;;;;;;4.63;2.78;;;;;;;10.86;100.00;100749.50;5058985;28;20048;-75
2024/02/14 11:08:07;;;;;;;2.03;1.90;;;;;;;11.03;100.00;100746.06;5063218;28;20079;-75
2024/02/14 11:10:37;;;;;;;0.30;0.30;;;;;;;10.27;100.00;100624.16;5067082;28;20033;-76
2024/02/14 11:13:04;;;;;;;0.38;0.38;;;;;;;11.06;100.00;100735.59;5061328;28;20040;-77
2024/02/14 11:15:35;;;;;;;2.17;1.02;;;;;;;10.62;100.00;100649.69;5065084;28;20127;-76
2024/02/14 11:18:08;;;;;;;1.30;1.20;;;;;;;9.28;100.00;100546.69;5061612;28;20404;-76
2024/02/14 11:20:37;;;;;;;1.10;0.73;;;;;;;10.63;100.00;100704.81;5069651;28;20080;-75
2024/02/14 11:23:05;;;;;;;3.28;2.97;;;;;;;10.75;100.00;100725.00;5065151;28;20072;-76
2024/02/14 11:25:36;;;;;;;2.85;2.60;;;;;;;10.82;100.00;100707.53;5063287;28;20082;-78
2024/02/14 11:28:25;;;;;;;1.30;1.20;;;;;;;10.69;100.00;100731.06;5049956;28;20049;-75
2024/02/14 11:30:52;;;;;;;0.45;0.45;;;;;;;10.09;100.00;100707.09;5059607;28;20048;-76